createdAt,value
2023-04-24T00:02:21.010Z,75686.52
2023-04-24T00:04:48.313Z,75697.23
2023-04-24T00:07:18.027Z,75718.20
2023-04-24T00:09:45.325Z,75741.66
2023-04-24T00:12:12.549Z,75755.65
2023-04-24T00:14:39.904Z,75764.70
2023-04-24T00:17:07.276Z,75779.11
2023-04-24T00:19:36.382Z,75784.45
2023-04-24T00:22:03.916Z,75788.58
2023-04-24T00:24:31.088Z,75796.80
2023-04-24T00:26:58.433Z,75801.33
2023-04-24T00:29:25.642Z,75808.73
2023-04-24T00:31:52.950Z,75817.38
2023-04-24T00:34:20.064Z,75823.96
2023-04-24T00:36:47.428Z,75829.31
2023-04-24T00:39:14.648Z,75833.02
2023-04-24T00:41:42.480Z,75833.42
2023-04-24T00:44:09.634Z,75834.66
2023-04-24T00:46:37.232Z,75835.07
2023-04-24T00:49:04.587Z,75835.48
2023-04-24T00:51:33.911Z,75834.25
2023-04-24T00:54:02.406Z,75829.72
2023-04-24T00:56:29.611Z,75831.78
2023-04-24T00:58:56.937Z,75832.60
2023-04-24T01:01:26.932Z,75834.25
2023-04-24T01:03:54.372Z,75835.89
2023-04-24T01:06:21.735Z,75840.00
2023-04-24T01:08:49.272Z,75844.54
2023-04-24T01:11:16.363Z,75841.23
2023-04-24T01:13:43.525Z,75835.48
2023-04-24T01:16:12.308Z,75826.02
2023-04-24T01:18:39.467Z,75817.38
2023-04-24T01:21:07.172Z,75816.15
2023-04-24T01:23:34.269Z,75822.73
2023-04-24T01:26:02.131Z,75829.31
2023-04-24T01:28:29.266Z,75840.02
2023-04-24T01:30:57.625Z,75849.05
2023-04-24T01:33:24.717Z,75854.83
2023-04-24T01:35:51.912Z,75858.53
2023-04-24T01:38:19.139Z,75863.88
2023-04-24T01:40:46.400Z,75865.94
2023-04-24T01:43:14.082Z,75867.58
2023-04-24T01:45:41.277Z,75864.29
2023-04-24T01:48:08.349Z,75863.46
2023-04-24T01:50:38.960Z,75866.76
2023-04-24T01:53:06.180Z,75863.46
2023-04-24T01:55:33.650Z,75863.46
2023-04-24T01:58:00.813Z,75861.41
2023-04-24T02:00:27.980Z,75858.53
2023-04-24T02:02:55.315Z,75856.89
2023-04-24T02:05:22.610Z,75851.13
2023-04-24T02:07:49.875Z,75848.23
2023-04-24T02:10:17.043Z,75842.89
2023-04-24T02:12:44.873Z,75846.60
2023-04-24T02:15:12.295Z,75844.13
2023-04-24T02:17:39.774Z,75847.02
2023-04-24T02:20:10.158Z,75844.13
2023-04-24T02:22:39.281Z,75843.30
2023-04-24T02:25:08.434Z,75839.19
2023-04-24T02:27:35.654Z,75835.48
2023-04-24T02:30:06.616Z,75834.65
2023-04-24T02:32:33.907Z,75833.42
2023-04-24T02:35:01.087Z,75837.95
2023-04-24T02:37:28.241Z,75837.95
2023-04-24T02:39:55.425Z,75838.36
2023-04-24T02:42:23.957Z,75839.19
2023-04-24T02:44:52.685Z,75835.89
2023-04-24T02:47:19.899Z,75835.48
2023-04-24T02:49:47.108Z,75831.78
2023-04-24T02:52:15.978Z,75826.84
2023-04-24T02:54:43.173Z,75822.73
2023-04-24T02:57:10.246Z,75819.02
2023-04-24T02:59:38.354Z,75805.86
2023-04-24T03:14:07.583Z,75751.95
2023-04-24T03:16:34.834Z,75744.55
2023-04-24T03:19:02.346Z,75741.66
2023-04-24T03:21:30.638Z,75740.43
2023-04-24T03:24:00.074Z,75746.60
2023-04-24T03:26:27.502Z,75759.77
2023-04-24T03:29:07.171Z,75780.75
2023-04-24T03:31:34.675Z,75805.85
2023-04-24T03:34:01.928Z,75828.08
2023-04-24T03:36:29.589Z,75845.77
2023-04-24T03:38:56.845Z,75861.82
2023-04-24T03:41:33.959Z,75880.34
2023-04-24T03:44:23.705Z,75893.51
2023-04-24T03:46:51.288Z,75905.02
2023-04-24T03:49:19.755Z,75912.44
2023-04-24T03:51:47.341Z,75916.95
2023-04-24T03:54:26.882Z,75917.79
2023-04-24T03:56:55.180Z,75919.02
2023-04-24T03:59:23.429Z,75919.02
2023-04-24T04:02:01.019Z,75920.25
2023-04-24T04:04:29.198Z,75916.14
2023-04-24T04:07:02.503Z,75913.67
2023-04-24T04:09:30.713Z,75909.14
2023-04-24T04:11:57.867Z,75907.08
2023-04-24T04:14:25.481Z,75902.56
2023-04-24T04:16:54.679Z,75897.61
2023-04-24T04:19:22.835Z,75888.98
2023-04-24T04:21:54.635Z,75878.27
2023-04-24T04:24:45.711Z,75860.17
2023-04-24T04:27:15.177Z,75842.06
2023-04-24T04:29:51.244Z,75820.67
2023-04-24T04:32:19.167Z,75795.15
2023-04-24T04:34:50.818Z,75774.99
2023-04-24T04:37:18.526Z,75750.30
2023-04-24T04:39:51.731Z,75745.77
2023-04-24T04:42:22.400Z,75736.31
2023-04-24T04:44:52.087Z,75733.42
2023-04-24T04:47:24.587Z,75733.42
2023-04-24T04:49:55.152Z,75728.08
2023-04-24T04:52:26.525Z,75723.14
2023-04-24T04:54:59.959Z,75705.04
2023-04-24T04:57:34.219Z,75683.65
2023-04-24T05:05:57.404Z,75564.32
2023-04-24T05:08:43.812Z,75512.05
2023-04-24T05:11:16.360Z,75459.80
2023-04-24T05:13:43.626Z,75415.36
2023-04-24T05:16:16.973Z,75371.75
2023-04-24T05:18:47.631Z,75336.36
2023-04-24T05:21:17.120Z,75300.16
2023-04-24T05:23:47.075Z,75254.48
2023-04-24T05:26:16.831Z,75207.17
2023-04-24T05:28:45.293Z,75155.73
2023-04-24T05:31:13.759Z,75108.42
2023-04-24T05:33:41.116Z,75068.52
2023-04-24T05:36:08.709Z,75026.15
2023-04-24T05:38:37.147Z,74985.83
2023-04-24T05:41:04.342Z,74956.61
2023-04-24T05:43:32.904Z,74924.11
2023-04-24T05:46:04.633Z,74894.48
2023-04-24T05:48:32.852Z,74861.58
2023-04-24T05:51:02.341Z,74831.95
2023-04-24T05:53:30.916Z,74780.13
2023-04-24T05:55:59.178Z,74735.70
2023-04-24T05:58:27.176Z,74704.42
2023-04-24T06:00:54.944Z,74658.35
2023-04-24T06:03:23.132Z,74602.00
2023-04-24T06:05:52.377Z,74551.40
2023-04-24T06:08:20.112Z,74510.67
2023-04-24T06:10:47.881Z,74472.42
2023-04-24T06:13:17.297Z,74438.68
2023-04-24T06:15:54.433Z,74404.95
2023-04-24T06:18:30.368Z,74365.05
2023-04-24T06:20:57.680Z,74339.14
2023-04-24T06:23:24.918Z,74318.57
2023-04-24T06:25:52.436Z,74286.08
2023-04-24T06:28:19.790Z,74246.17
2023-04-24T06:30:46.897Z,74212.02
2023-04-24T06:35:49.373Z,74185.71
2023-04-24T06:38:17.965Z,74186.52
2023-04-24T06:40:46.140Z,74186.13
2023-04-24T06:43:13.877Z,74192.28
2023-04-24T06:45:41.271Z,74204.63
2023-04-24T06:48:08.609Z,74209.56
2023-04-24T06:50:36.527Z,74199.70
2023-04-24T06:53:03.658Z,74193.93
2023-04-24T06:55:32.366Z,74182.83
2023-04-24T06:57:59.919Z,74144.16
2023-04-24T07:00:27.073Z,74098.09
2023-04-24T07:02:54.553Z,74080.83
2023-04-24T07:05:21.792Z,74060.26
2023-04-24T07:07:50.233Z,74060.25
2023-04-24T07:10:17.431Z,74087.40
2023-04-24T07:12:44.909Z,74122.36
2023-04-24T07:15:12.066Z,74153.63
2023-04-24T07:17:39.837Z,74157.33
2023-04-24T07:20:10.591Z,74140.88
2023-04-24T07:22:39.304Z,74117.42
2023-04-24T07:25:06.731Z,74094.39
2023-04-24T07:27:34.315Z,74073.42
2023-04-24T07:30:05.720Z,74074.65
2023-04-24T07:32:33.128Z,74084.52
2023-04-24T07:35:00.260Z,74065.19
2023-04-24T07:37:28.967Z,74063.55
2023-04-24T07:39:56.528Z,74070.54
2023-04-24T07:42:25.355Z,74070.95
2023-04-24T07:44:52.597Z,74067.25
2023-04-24T07:47:19.722Z,74049.14
2023-04-24T07:49:46.868Z,74007.61
2023-04-24T07:52:14.121Z,73964.83
2023-04-24T07:54:42.066Z,73942.62
2023-04-24T07:57:09.471Z,73930.27
2023-04-24T07:59:36.675Z,73919.59
2023-04-24T08:02:03.845Z,73903.95
2023-04-24T08:04:31.219Z,73887.50
2023-04-24T08:06:59.014Z,73883.39
2023-04-24T08:09:27.647Z,73890.79
2023-04-24T08:11:55.081Z,73910.13
2023-04-24T08:14:22.342Z,73917.52
2023-04-24T08:16:49.410Z,73916.30
2023-04-24T08:19:16.563Z,73925.35
2023-04-24T08:21:43.704Z,73917.94
2023-04-24T08:24:10.833Z,73916.70
2023-04-24T08:26:38.015Z,73933.16
2023-04-24T08:29:08.020Z,73958.25
2023-04-24T08:31:35.311Z,73953.72
2023-04-24T08:34:02.666Z,73943.44
2023-04-24T08:36:43.551Z,73948.79
2023-04-24T08:39:14.024Z,74003.08
2023-04-24T08:41:46.640Z,74069.71
2023-04-24T08:44:16.884Z,74138.41
2023-04-24T08:46:46.762Z,74191.47
2023-04-24T08:49:17.424Z,74179.95
2023-04-24T08:51:48.884Z,74109.20
2023-04-24T08:54:16.499Z,74051.20
2023-04-24T08:56:45.126Z,74028.17
2023-04-24T08:59:15.761Z,74055.73
2023-04-24T09:01:44.935Z,74119.48
2023-04-24T09:04:16.317Z,74175.42
2023-04-24T09:06:43.864Z,74170.08
2023-04-24T09:09:11.162Z,74114.96
2023-04-24T09:11:38.382Z,74046.27
2023-04-24T09:14:08.726Z,73983.75
2023-04-24T09:16:37.257Z,73927.40
2023-04-24T09:19:06.850Z,73895.32
2023-04-24T09:21:34.987Z,73853.36
2023-04-24T09:24:04.611Z,73834.45
2023-04-24T09:26:35.070Z,73819.64
2023-04-24T09:29:02.354Z,73782.21
2023-04-24T09:31:30.826Z,73737.80
2023-04-24T09:34:02.900Z,73700.77
2023-04-24T09:36:35.117Z,73693.38
2023-04-24T09:39:03.143Z,73669.52
2023-04-24T09:41:33.890Z,73631.68
2023-04-24T09:44:17.576Z,73605.36
2023-04-24T09:46:50.079Z,73577.81
2023-04-24T09:49:17.917Z,73563.41
2023-04-24T09:51:47.315Z,73528.05
2023-04-24T09:54:23.772Z,73505.42
2023-04-24T09:56:52.185Z,73549.02
2023-04-24T09:59:20.841Z,73613.99
2023-04-24T10:01:49.865Z,73730.39
2023-04-24T10:04:22.069Z,73857.48
2023-04-24T10:06:52.844Z,73956.19
2023-04-24T10:09:22.259Z,74010.89
2023-04-24T10:11:55.236Z,74052.02
2023-04-24T10:14:23.676Z,74055.31
2023-04-24T10:16:51.384Z,74039.27
2023-04-24T10:19:21.527Z,74023.64
2023-04-24T10:21:48.836Z,74043.39
2023-04-24T10:24:19.593Z,74026.52
2023-04-24T10:26:47.000Z,73960.30
2023-04-24T10:29:14.810Z,73889.15
2023-04-24T10:31:42.818Z,73857.48
2023-04-24T10:34:11.770Z,73856.66
2023-04-24T10:36:43.907Z,73839.38
2023-04-24T10:39:13.818Z,73820.45
2023-04-24T10:41:42.245Z,73853.77
2023-04-24T10:44:10.999Z,73917.94
2023-04-24T10:46:42.418Z,73989.09
2023-04-24T10:49:12.574Z,74036.81
2023-04-24T10:51:48.437Z,74078.35
2023-04-24T10:54:35.133Z,74112.08
2023-04-24T10:57:23.786Z,74147.86
2023-04-24T11:00:19.887Z,74185.30
2023-04-24T11:02:50.617Z,74211.62
2023-04-24T11:05:18.902Z,74218.61
2023-04-24T11:08:14.482Z,74203.80
2023-04-24T11:10:48.842Z,74182.83
2023-04-24T11:13:22.890Z,74172.55
2023-04-24T11:16:30.254Z,74166.78
2023-04-24T11:19:09.010Z,74153.21
2023-04-24T11:21:49.750Z,74129.36
2023-04-24T11:24:27.641Z,74104.27
2023-04-24T11:26:58.718Z,74061.48
2023-04-24T11:29:45.724Z,74037.63
2023-04-24T11:32:20.732Z,74054.49
2023-04-24T11:34:53.038Z,74099.33
2023-04-24T11:37:44.013Z,74148.69
2023-04-24T11:40:17.688Z,74186.52
2023-04-24T11:42:45.548Z,74209.15
2023-04-24T11:45:21.029Z,74227.25
2023-04-24T11:47:48.819Z,74248.23
2023-04-24T11:50:17.073Z,74276.62
2023-04-24T11:52:47.656Z,74305.40
2023-04-24T11:55:20.916Z,74317.74
2023-04-24T11:57:52.296Z,74331.73
2023-04-24T12:00:23.846Z,74326.39
2023-04-24T12:02:51.682Z,74327.61
2023-04-24T12:05:35.857Z,74338.31
2023-04-24T12:08:03.239Z,74341.19
2023-04-24T12:10:31.410Z,74343.25
2023-04-24T12:13:03.957Z,74346.55
2023-04-24T12:15:32.313Z,74353.12
2023-04-24T12:18:00.152Z,74361.76
2023-04-24T12:20:32.349Z,74365.88
2023-04-24T12:23:05.071Z,74360.95
2023-04-24T12:25:33.178Z,74350.65
2023-04-24T12:28:27.024Z,74334.20
2023-04-24T12:30:54.795Z,74334.61
2023-04-24T12:33:22.354Z,74346.95
2023-04-24T12:35:52.631Z,74365.45
2023-04-24T12:38:26.956Z,74373.69
2023-04-24T12:41:07.693Z,74384.80
2023-04-24T12:43:35.212Z,74399.61
2023-04-24T12:46:02.424Z,74407.42
2023-04-24T12:48:30.411Z,74418.12
2023-04-24T12:51:04.154Z,74433.75
2023-04-24T12:53:32.457Z,74446.09
2023-04-24T12:55:59.831Z,74466.66
2023-04-24T12:58:27.097Z,74478.59
2023-04-24T13:00:54.407Z,74515.61
2023-04-24T13:03:23.758Z,74558.39
2023-04-24T13:05:51.546Z,74620.92
2023-04-24T13:08:19.508Z,74653.83
2023-04-24T13:10:46.722Z,74683.86
2023-04-24T13:13:13.776Z,74690.44
2023-04-24T13:15:41.401Z,74671.93
2023-04-24T13:18:08.567Z,74641.08
2023-04-24T13:20:37.449Z,74615.58
2023-04-24T13:23:04.700Z,74592.13
2023-04-24T13:25:36.434Z,74573.20
2023-04-24T13:28:03.562Z,74554.27
2023-04-24T13:30:30.632Z,74534.95
2023-04-24T13:32:57.759Z,74520.95
2023-04-24T13:35:24.888Z,74504.50
2023-04-24T13:37:53.180Z,74495.86
2023-04-24T13:40:20.356Z,74496.69
2023-04-24T13:42:47.472Z,74501.21
2023-04-24T13:45:24.870Z,74502.03
2023-04-24T13:47:52.857Z,74496.69
2023-04-24T13:50:20.501Z,74488.45
2023-04-24T13:52:47.645Z,74481.88
2023-04-24T13:55:15.044Z,74468.30
2023-04-24T13:57:42.149Z,74467.89
2023-04-24T14:00:15.558Z,74463.36
2023-04-24T14:02:43.648Z,74466.65
2023-04-24T14:05:12.308Z,74468.71
2023-04-24T14:07:39.626Z,74465.00
2023-04-24T14:10:08.660Z,74472.41
2023-04-24T14:12:36.278Z,74473.65
2023-04-24T14:15:03.847Z,74486.82
2023-04-24T14:17:31.960Z,74497.10
2023-04-24T14:20:01.661Z,74509.44
2023-04-24T14:22:29.264Z,74515.60
2023-04-24T14:24:56.356Z,74523.83
2023-04-24T14:27:23.700Z,74527.54
2023-04-24T14:29:51.008Z,74539.88
2023-04-24T14:32:19.574Z,74554.27
2023-04-24T14:34:46.725Z,74565.80
2023-04-24T14:37:13.884Z,74573.61
2023-04-24T14:39:42.364Z,74575.67
2023-04-24T14:42:10.822Z,74580.60
2023-04-24T14:44:38.290Z,74584.72
2023-04-24T14:47:05.482Z,74587.19
2023-04-24T14:49:34.143Z,74584.71
2023-04-24T14:52:01.469Z,74583.48
2023-04-24T14:54:29.614Z,74581.02
2023-04-24T14:56:58.379Z,74580.60
2023-04-24T14:59:25.599Z,74585.95
2023-04-24T15:02:04.976Z,74584.73
2023-04-24T15:04:43.202Z,74589.65
2023-04-24T15:07:10.552Z,74595.41
2023-04-24T15:09:37.657Z,74600.35
2023-04-24T15:12:05.233Z,74599.94
2023-04-24T15:14:32.462Z,74601.98
2023-04-24T15:16:59.741Z,74599.94
2023-04-24T15:19:26.998Z,74599.52
2023-04-24T15:21:54.820Z,74602.41
2023-04-24T15:24:21.901Z,74602.82
2023-04-24T15:26:51.497Z,74603.23
2023-04-24T15:29:19.044Z,74603.23
2023-04-24T15:31:51.361Z,74605.70
2023-04-24T15:34:18.491Z,74604.88
2023-04-24T15:36:45.804Z,74604.88
2023-04-24T15:39:15.833Z,74606.11
2023-04-24T15:41:43.095Z,74610.64
2023-04-24T15:44:10.575Z,74616.39
2023-04-24T15:46:40.809Z,74621.74
2023-04-24T15:49:08.009Z,74622.16
2023-04-24T15:51:36.351Z,74622.98
2023-04-24T15:54:03.963Z,74625.85
2023-04-24T15:56:31.645Z,74627.50
2023-04-24T15:58:59.237Z,74630.79
2023-04-24T16:01:27.810Z,74634.48
2023-04-24T16:03:57.252Z,74637.38
2023-04-24T16:06:25.960Z,74642.72
2023-04-24T16:08:53.025Z,74643.55
2023-04-24T16:11:20.167Z,74646.84
2023-04-24T16:13:47.332Z,74653.83
2023-04-24T16:16:14.490Z,74655.89
2023-04-24T16:18:41.933Z,74659.59
2023-04-24T16:21:10.893Z,74664.11
2023-04-24T16:23:38.332Z,74668.23
2023-04-24T16:26:06.862Z,74668.64
2023-04-24T16:28:33.929Z,74673.16
2023-04-24T16:31:01.427Z,74677.27
2023-04-24T16:33:29.518Z,74681.80
2023-04-24T16:35:58.215Z,74690.86
2023-04-24T16:38:27.522Z,74696.20
2023-04-24T16:40:54.961Z,74701.55
2023-04-24T16:43:22.107Z,74708.95
2023-04-24T16:45:49.210Z,74715.95
2023-04-24T16:48:17.929Z,74726.64
2023-04-24T16:50:46.370Z,74731.17
2023-04-24T16:53:13.984Z,74741.86
2023-04-24T16:55:41.195Z,74750.50
2023-04-24T16:58:08.586Z,74760.38
2023-04-24T17:00:37.093Z,74765.73
2023-04-24T17:03:04.553Z,74773.95
2023-04-24T17:05:33.668Z,74785.47
2023-04-24T17:08:01.092Z,74796.17
2023-04-24T17:10:29.202Z,74803.16
2023-04-24T17:12:57.644Z,74808.92
2023-04-24T17:15:24.780Z,74820.02
2023-04-24T17:17:51.992Z,74827.84
2023-04-24T17:20:22.761Z,74835.25
2023-04-24T17:22:50.382Z,74842.66
2023-04-24T17:25:17.838Z,74850.88
2023-04-24T17:27:45.390Z,74860.35
2023-04-24T17:30:14.802Z,74871.45
2023-04-24T17:32:41.901Z,74879.27
2023-04-24T17:35:09.374Z,74885.44
2023-04-24T17:37:37.933Z,74894.08
2023-04-24T17:40:08.401Z,74895.73
2023-04-24T17:42:41.573Z,74897.77
2023-04-24T17:45:10.183Z,74904.36
2023-04-24T17:47:37.328Z,74913.02
2023-04-24T17:50:04.736Z,74922.05
2023-04-24T17:52:33.630Z,74926.98
2023-04-24T17:55:02.375Z,74937.27
2023-04-24T17:57:29.651Z,74945.51
2023-04-24T17:59:57.561Z,74952.09
2023-04-24T18:02:27.965Z,74959.90
2023-04-24T18:04:55.656Z,74962.37
2023-04-24T18:07:23.028Z,74969.37
2023-04-24T18:09:50.128Z,74974.71
2023-04-24T18:12:17.311Z,74979.24
2023-04-24T18:14:44.456Z,74983.36
2023-04-24T18:17:11.828Z,74992.41
2023-04-24T18:19:39.158Z,75001.46
2023-04-24T18:22:06.376Z,75007.23
2023-04-24T18:24:33.763Z,75016.68
2023-04-24T18:27:01.854Z,75024.91
2023-04-24T18:29:29.374Z,75033.96
2023-04-24T18:31:56.806Z,75036.43
2023-04-24T18:34:24.030Z,75039.31
2023-04-24T18:36:51.345Z,75041.36
2023-04-24T18:39:18.499Z,75047.13
2023-04-24T18:41:45.906Z,75052.89
2023-04-24T18:44:15.474Z,75061.52
2023-04-24T18:46:42.758Z,75069.34
2023-04-24T18:49:10.425Z,75077.58
2023-04-24T18:51:50.195Z,75084.98
2023-04-24T18:54:20.075Z,75092.38
2023-04-24T18:56:47.200Z,75104.31
2023-04-24T18:59:14.396Z,75115.83
2023-04-24T19:01:41.841Z,75120.77
2023-04-24T19:04:10.161Z,75128.17
2023-04-24T19:06:38.290Z,75134.76
2023-04-24T19:09:05.940Z,75147.52
2023-04-24T19:11:33.645Z,75161.50
2023-04-24T19:14:05.824Z,75165.61
2023-04-24T19:16:32.995Z,75177.95
2023-04-24T19:19:00.241Z,75181.66
2023-04-24T19:21:28.606Z,75189.06
2023-04-24T19:23:57.214Z,75192.77
2023-04-24T19:26:25.998Z,75196.48
2023-04-24T19:28:53.841Z,75199.36
2023-04-24T19:31:22.308Z,75202.64
2023-04-24T19:33:49.800Z,75211.70
2023-04-24T19:36:20.872Z,75213.75
2023-04-24T19:38:48.278Z,75221.58
2023-04-24T19:41:16.252Z,75229.80
2023-04-24T19:43:43.512Z,75234.73
2023-04-24T19:46:13.396Z,75242.55
2023-04-24T19:48:40.885Z,75250.38
2023-04-24T19:51:08.087Z,75258.20
2023-04-24T19:53:37.343Z,75268.48
2023-04-24T19:56:04.591Z,75275.06
2023-04-24T19:58:32.751Z,75283.29
2023-04-24T20:01:01.659Z,75291.52
2023-04-24T20:03:33.486Z,75300.98
2023-04-24T20:06:01.361Z,75307.98
2023-04-24T20:08:28.573Z,75314.15
2023-04-24T20:10:58.212Z,75321.96
2023-04-24T20:13:27.768Z,75331.02
2023-04-24T20:15:55.735Z,75337.60
2023-04-24T20:18:23.383Z,75344.59
2023-04-24T20:20:54.286Z,75351.18
2023-04-24T20:23:21.552Z,75357.34
2023-04-24T20:25:50.249Z,75361.45
2023-04-24T20:28:19.340Z,75365.98
2023-04-24T20:30:46.612Z,75373.39
2023-04-24T20:33:13.746Z,75373.40
2023-04-24T20:35:40.925Z,75377.92
2023-04-24T20:38:11.088Z,75382.04
2023-04-24T20:40:46.910Z,75385.33
2023-04-24T20:43:28.640Z,75389.44
2023-04-24T20:45:58.312Z,75391.09
2023-04-24T20:48:27.178Z,75394.79
2023-04-24T20:50:56.145Z,75396.85
2023-04-24T20:53:24.162Z,75397.27
2023-04-24T20:55:51.309Z,75403.02
2023-04-24T20:58:24.560Z,75405.08
2023-04-24T21:00:51.957Z,75410.83
2023-04-24T21:03:20.060Z,75412.08
2023-04-24T21:05:51.316Z,75417.42
2023-04-24T21:08:18.452Z,75420.71
2023-04-24T21:10:46.685Z,75427.30
2023-04-24T21:13:13.838Z,75425.64
2023-04-24T21:15:40.989Z,75428.12
2023-04-24T21:18:08.109Z,75430.17
2023-04-24T21:20:36.505Z,75431.00
2023-04-24T21:23:03.637Z,75433.05
2023-04-24T21:25:30.823Z,75431.83
2023-04-24T21:27:58.787Z,75431.83
2023-04-24T21:30:25.947Z,75431.00
2023-04-24T21:32:53.334Z,75434.29
2023-04-24T21:35:20.897Z,75430.59
2023-04-24T21:37:50.916Z,75434.29
2023-04-24T21:40:18.019Z,75438.82
2023-04-24T21:42:45.727Z,75440.46
2023-04-24T21:45:12.847Z,75444.98
2023-04-24T21:47:40.070Z,75448.27
2023-04-24T21:50:07.962Z,75446.64
2023-04-24T21:52:35.323Z,75452.80
2023-04-24T21:55:04.667Z,75453.63
2023-04-24T21:57:31.819Z,75454.86
2023-04-24T21:59:59.013Z,75460.62
2023-04-24T22:02:27.754Z,75461.85
2023-04-24T22:04:56.667Z,75461.02
2023-04-24T22:07:24.120Z,75458.56
2023-04-24T22:09:52.702Z,75460.63
2023-04-24T22:12:23.619Z,75464.33
2023-04-24T22:14:51.718Z,75462.27
2023-04-24T22:17:19.161Z,75461.44
2023-04-24T22:19:46.462Z,75460.21
2023-04-24T22:22:13.669Z,75459.39
2023-04-24T22:24:41.012Z,75455.69
2023-04-24T22:27:08.161Z,75453.22
2023-04-24T22:29:35.454Z,75456.10
2023-04-24T22:32:03.176Z,75455.69
2023-04-24T22:34:30.446Z,75456.91
2023-04-24T22:36:57.779Z,75461.04
2023-04-24T22:39:24.888Z,75465.98
2023-04-24T22:41:51.926Z,75470.91
2023-04-24T22:44:19.320Z,75472.55
2023-04-24T22:46:47.786Z,75474.61
2023-04-24T22:49:15.063Z,75473.78
2023-04-24T22:51:42.886Z,75472.14
2023-04-24T22:54:09.987Z,75470.50
2023-04-24T22:56:38.345Z,75468.85
2023-04-24T22:59:06.631Z,75465.98
2023-04-24T23:01:33.934Z,75459.80
2023-04-24T23:04:01.100Z,75454.04
2023-04-24T23:06:28.318Z,75454.05
2023-04-24T23:08:55.494Z,75451.57
2023-04-24T23:11:22.691Z,75450.33
2023-04-24T23:13:50.071Z,75443.75
2023-04-24T23:16:17.505Z,75440.05
2023-04-24T23:18:44.631Z,75435.52
2023-04-24T23:21:12.511Z,75435.52
2023-04-24T23:23:39.722Z,75437.99
2023-04-24T23:26:06.932Z,75441.29
2023-04-24T23:28:34.060Z,75445.81
2023-04-24T23:31:03.282Z,75450.75
2023-04-24T23:33:31.433Z,75458.56
2023-04-24T23:35:59.310Z,75468.02
2023-04-24T23:38:30.132Z,75469.67
2023-04-24T23:41:02.350Z,75473.79
2023-04-24T23:43:29.444Z,75482.02
2023-04-24T23:45:57.233Z,75487.77
2023-04-24T23:48:24.291Z,75493.13
2023-04-24T23:50:51.425Z,75490.66
2023-04-24T23:53:18.564Z,75493.13
2023-04-24T23:55:45.665Z,75493.54
2023-04-24T23:58:13.835Z,75494.77
